createdAt,value
2016-02-05T00:00:56.247Z,0
2016-02-05T00:01:56.171Z,0
2016-02-05T00:02:56.189Z,0
2016-02-05T00:03:56.191Z,0
2016-02-05T00:04:56.164Z,0
2016-02-05T00:05:55.994Z,0
2016-02-05T00:06:56.153Z,0
2016-02-05T00:07:56.141Z,0
2016-02-05T00:08:56.158Z,0
2016-02-05T00:09:56.147Z,0
2016-02-05T00:10:56.181Z,0
2016-02-05T00:11:56.152Z,0
2016-02-05T00:12:56.139Z,0
2016-02-05T00:13:56.126Z,0
2016-02-05T00:14:56.133Z,0
2016-02-05T00:15:56.136Z,0
2016-02-05T00:16:56.124Z,0
2016-02-05T00:17:56.112Z,0
2016-02-05T00:18:56.114Z,0
2016-02-05T00:19:56.148Z,0
2016-02-05T00:20:56.120Z,0
2016-02-05T00:21:55.966Z,0
2016-02-05T00:22:56.110Z,0
2016-02-05T00:23:55.956Z,0
2016-02-05T00:24:55.933Z,0
2016-02-05T00:25:56.092Z,0
2016-02-05T00:26:56.111Z,0
2016-02-05T00:27:56.081Z,0
2016-02-05T00:28:56.100Z,0
2016-02-05T00:29:56.104Z,0
2016-02-05T00:30:56.081Z,0
2016-02-05T00:31:55.958Z,0
2016-02-05T00:32:56.091Z,0
2016-02-05T00:33:56.079Z,0
2016-02-05T00:34:56.065Z,0
2016-02-05T00:35:56.109Z,0
2016-02-05T00:36:56.049Z,0
2016-02-05T00:37:56.052Z,0
2016-02-05T00:38:56.086Z,0
2016-02-05T00:39:56.058Z,0
2016-02-05T00:40:56.075Z,0
2016-02-05T00:41:56.078Z,0
2016-02-05T00:42:55.909Z,0
2016-02-05T00:43:56.043Z,0
2016-02-05T00:44:56.062Z,0
2016-02-05T00:45:56.033Z,0
2016-02-05T00:46:56.036Z,0
2016-02-05T00:47:56.070Z,0
2016-02-05T00:48:56.026Z,0
2016-02-05T00:49:56.012Z,0
2016-02-05T00:50:56.047Z,0
2016-02-05T00:51:56.050Z,0
2016-02-05T00:52:56.006Z,0
2016-02-05T00:53:56.008Z,0
2016-02-05T00:54:56.013Z,0
2016-02-05T00:55:56.017Z,0
2016-02-05T00:56:56.035Z,0
2016-02-05T00:57:55.838Z,0
2016-02-05T00:58:55.996Z,0
2016-02-05T00:59:56.031Z,0
2016-02-05T01:00:55.987Z,0
2016-02-05T01:01:55.990Z,0
2016-02-05T01:02:56.007Z,0
2016-02-05T01:03:55.979Z,0
2016-02-05T01:04:55.998Z,0
2016-02-05T01:05:56.001Z,0
2016-02-05T01:06:55.987Z,0
2016-02-05T01:07:55.991Z,0
2016-02-05T01:08:55.994Z,0
2016-02-05T01:09:55.965Z,0
2016-02-05T01:10:55.999Z,0
2016-02-05T01:11:56.001Z,0
2016-02-05T01:12:55.959Z,0
2016-02-05T01:13:55.977Z,0
2016-02-05T01:14:55.980Z,0
2016-02-05T01:15:55.951Z,0
2016-02-05T01:16:55.954Z,0
2016-02-05T01:17:55.945Z,0
2016-02-05T01:18:55.948Z,0
2016-02-05T01:19:55.950Z,0
2016-02-05T01:20:55.936Z,0
2016-02-05T01:21:55.940Z,0
2016-02-05T01:22:55.927Z,0
2016-02-05T01:23:55.930Z,0
2016-02-05T01:24:55.932Z,0
2016-02-05T01:25:55.920Z,0
2016-02-05T01:26:55.922Z,0
2016-02-05T01:27:55.930Z,0
2016-02-05T01:28:55.901Z,0
2016-02-05T01:29:55.950Z,0
2016-02-05T01:30:55.922Z,0
2016-02-05T01:31:55.909Z,0
2016-02-05T01:32:55.740Z,0
2016-02-05T01:33:55.899Z,0
2016-02-05T01:34:55.886Z,0
2016-02-05T01:35:55.924Z,0
2016-02-05T01:36:55.880Z,0
2016-02-05T01:37:55.883Z,0
2016-02-05T01:38:55.870Z,0
2016-02-05T01:39:55.903Z,0
2016-02-05T01:40:55.891Z,0
2016-02-05T01:41:55.877Z,0
2016-02-05T01:42:55.896Z,0
2016-02-05T01:43:55.867Z,0
2016-02-05T01:44:55.869Z,0
2016-02-05T01:45:55.888Z,0
2016-02-05T01:46:55.859Z,0
2016-02-05T01:47:55.864Z,0
2016-02-05T01:48:55.881Z,0
2016-02-05T01:49:55.838Z,0
2016-02-05T01:50:55.840Z,0
2016-02-05T01:51:55.858Z,0
2016-02-05T01:52:55.896Z,0
2016-02-05T01:53:55.836Z,0
2016-02-05T01:54:55.854Z,0
2016-02-05T01:55:55.845Z,0
2016-02-05T01:56:55.832Z,0
2016-02-05T01:57:55.679Z,0
2016-02-05T01:58:55.814Z,0
2016-02-05T01:59:55.817Z,0
2016-02-05T02:00:55.835Z,0
2016-02-05T02:01:55.806Z,0
2016-02-05T02:02:55.793Z,0
2016-02-05T02:03:55.817Z,0
2016-02-05T02:04:55.804Z,0
2016-02-05T02:05:55.806Z,0
2016-02-05T02:06:55.824Z,0
2016-02-05T02:07:55.781Z,0
2016-02-05T02:08:55.784Z,0
2016-02-05T02:09:55.818Z,0
2016-02-05T02:10:55.759Z,0
2016-02-05T02:11:55.776Z,0
2016-02-05T02:12:55.796Z,0
2016-02-05T02:13:55.767Z,0
2016-02-05T02:14:55.754Z,0
2016-02-05T02:15:55.788Z,0
2016-02-05T02:16:55.759Z,0
2016-02-05T02:17:55.762Z,0
2016-02-05T02:18:55.765Z,0
2016-02-05T02:19:55.751Z,0
2016-02-05T02:20:55.756Z,0
2016-02-05T02:21:55.775Z,0
2016-02-05T02:22:55.731Z,0
2016-02-05T02:23:55.734Z,0
2016-02-05T02:24:55.752Z,0
2016-02-05T02:25:55.724Z,0
2016-02-05T02:26:55.758Z,0
2016-02-05T02:27:55.732Z,0
2016-02-05T02:28:55.718Z,0
2016-02-05T02:29:55.721Z,0
2016-02-05T02:30:55.776Z,0
2016-02-05T02:31:55.701Z,0
2016-02-05T02:32:55.749Z,0
2016-02-05T02:33:55.722Z,0
2016-02-05T02:34:55.709Z,0
2016-02-05T02:35:55.727Z,0
2016-02-05T02:36:55.698Z,0
2016-02-05T02:37:55.701Z,0
2016-02-05T02:38:55.688Z,0
2016-02-05T02:39:55.691Z,0
2016-02-05T02:40:55.694Z,0
2016-02-05T02:41:55.681Z,0
2016-02-05T02:42:55.700Z,0
2016-02-05T02:43:55.677Z,0
2016-02-05T02:44:55.710Z,0
2016-02-05T02:45:55.540Z,0
2016-02-05T02:46:55.684Z,0
2016-02-05T02:47:55.702Z,0
2016-02-05T02:48:55.689Z,0
2016-02-05T02:49:55.661Z,0
2016-02-05T02:50:55.507Z,0
2016-02-05T02:51:55.682Z,0
2016-02-05T02:52:55.656Z,0
2016-02-05T02:53:55.659Z,0
2016-02-05T02:54:55.661Z,0
2016-02-05T02:55:55.648Z,0
2016-02-05T02:56:55.636Z,0
2016-02-05T02:57:55.671Z,0
2016-02-05T02:58:55.861Z,0
2016-02-05T02:59:55.630Z,0
2016-02-05T03:00:55.652Z,0
2016-02-05T03:01:55.622Z,0
2016-02-05T03:02:55.625Z,0
2016-02-05T03:03:55.660Z,0
2016-02-05T03:04:55.600Z,0
2016-02-05T03:05:55.603Z,0
2016-02-05T03:06:55.637Z,0
2016-02-05T03:07:55.592Z,0
2016-02-05T03:08:55.596Z,0
2016-02-05T03:09:55.630Z,0
2016-02-05T03:10:55.586Z,0
2016-02-05T03:11:55.588Z,0
2016-02-05T03:12:55.592Z,0
2016-02-05T03:13:55.583Z,0
2016-02-05T03:14:55.602Z,0
2016-02-05T03:15:55.575Z,0
2016-02-05T03:16:55.594Z,0
2016-02-05T03:17:55.581Z,0
2016-02-05T03:18:55.568Z,0
2016-02-05T03:19:55.558Z,0
2016-02-05T03:20:55.578Z,0
2016-02-05T03:21:55.565Z,0
2016-02-05T03:22:55.567Z,0
2016-02-05T03:23:55.554Z,0
2016-02-05T03:24:55.400Z,0
2016-02-05T03:25:55.545Z,0
2016-02-05T03:26:55.532Z,0
2016-02-05T03:27:55.566Z,0
2016-02-05T03:28:55.537Z,0
2016-02-05T03:29:55.540Z,0
2016-02-05T03:30:55.555Z,0
2016-02-05T03:31:55.527Z,0
2016-02-05T03:32:55.560Z,0
2016-02-05T03:33:55.562Z,0
2016-02-05T03:34:55.518Z,0
2016-02-05T03:35:55.521Z,0
2016-02-05T03:36:55.540Z,0
2016-02-05T03:37:55.512Z,0
2016-02-05T03:38:55.531Z,0
2016-02-05T03:39:55.533Z,0
2016-02-05T03:40:55.506Z,0
2016-02-05T03:41:55.492Z,0
2016-02-05T03:42:55.511Z,0
2016-02-05T03:43:55.498Z,0
2016-02-05T03:44:55.484Z,0
2016-02-05T03:45:55.521Z,0
2016-02-05T03:46:55.476Z,0
2016-02-05T03:47:55.480Z,0
2016-02-05T03:48:55.497Z,0
2016-02-05T03:49:55.469Z,0
2016-02-05T03:50:55.471Z,0
2016-02-05T03:51:55.506Z,0
2016-02-05T03:52:55.477Z,0
2016-02-05T03:53:55.510Z,0
2016-02-05T03:54:55.452Z,0
2016-02-05T03:55:55.453Z,0
2016-02-05T03:56:55.488Z,0
2016-02-05T03:57:55.444Z,0
2016-02-05T03:58:55.449Z,0
2016-02-05T03:59:55.317Z,0
2016-02-05T04:00:55.430Z,0
2016-02-05T04:01:55.433Z,0
2016-02-05T04:02:55.451Z,0
2016-02-05T04:03:55.422Z,0
2016-02-05T04:04:55.426Z,0
2016-02-05T04:05:55.447Z,0
2016-02-05T04:06:55.418Z,0
2016-02-05T04:07:55.405Z,0
2016-02-05T04:08:55.408Z,0
2016-02-05T04:09:55.411Z,0
2016-02-05T04:10:55.413Z,0
2016-02-05T04:11:55.385Z,0
2016-02-05T04:12:55.403Z,0
2016-02-05T04:13:55.390Z,0
2016-02-05T04:14:55.393Z,0
2016-02-05T04:15:55.427Z,0
2016-02-05T04:16:55.382Z,0
2016-02-05T04:17:55.385Z,0
2016-02-05T04:18:55.388Z,0
2016-02-05T04:19:55.376Z,0
2016-02-05T04:20:55.378Z,0
2016-02-05T04:21:55.397Z,0
2016-02-05T04:22:55.358Z,0
2016-02-05T04:23:55.362Z,0
2016-02-05T04:24:55.380Z,0
2016-02-05T04:25:55.382Z,0
2016-02-05T04:26:55.369Z,0
2016-02-05T04:27:55.355Z,0
2016-02-05T04:28:55.375Z,0
2016-02-05T04:29:55.344Z,0
2016-02-05T04:30:55.362Z,0
2016-02-05T04:31:55.365Z,0
2016-02-05T04:32:55.330Z,0
2016-02-05T04:33:55.325Z,0
2016-02-05T04:34:55.350Z,0
2016-02-05T04:35:55.298Z,0
2016-02-05T04:36:55.278Z,0
2016-02-05T04:37:55.292Z,0
2016-02-05T04:38:55.261Z,0
2016-02-05T04:39:55.308Z,0
2016-02-05T04:40:55.106Z,0
2016-02-05T04:41:55.247Z,0
2016-02-05T04:42:55.232Z,0
2016-02-05T04:43:55.250Z,0
2016-02-05T04:44:55.235Z,0
2016-02-05T04:45:55.268Z,0
2016-02-05T04:46:55.222Z,0
2016-02-05T04:47:55.256Z,0
2016-02-05T04:48:55.259Z,0
2016-02-05T04:49:55.214Z,0
2016-02-05T04:50:55.218Z,0
2016-02-05T04:51:55.251Z,0
2016-02-05T04:52:55.207Z,0
2016-02-05T04:53:55.210Z,0
2016-02-05T04:54:55.196Z,0
2016-02-05T04:55:55.203Z,0
2016-02-05T04:56:55.191Z,0
2016-02-05T04:57:55.193Z,0
2016-02-05T04:58:55.197Z,0
2016-02-05T04:59:55.200Z,0
2016-02-05T05:00:55.188Z,0
2016-02-05T05:01:55.175Z,0
2016-02-05T05:02:55.193Z,0
2016-02-05T05:03:55.169Z,0
2016-02-05T05:04:55.171Z,0
2016-02-05T05:05:55.173Z,0
2016-02-05T05:06:55.176Z,0
2016-02-05T05:07:55.164Z,0
2016-02-05T05:08:55.150Z,0
2016-02-05T05:09:55.168Z,0
2016-02-05T05:10:55.202Z,0
2016-02-05T05:11:55.158Z,0
2016-02-05T05:12:55.146Z,0
2016-02-05T05:13:55.179Z,0
2016-02-05T05:14:55.151Z,0
2016-02-05T05:15:55.201Z,0
2016-02-05T05:16:55.188Z,0
2016-02-05T05:17:55.144Z,0
2016-02-05T05:18:54.974Z,0
2016-02-05T05:19:55.149Z,0
2016-02-05T05:20:55.121Z,0
2016-02-05T05:21:55.124Z,0
2016-02-05T05:22:55.127Z,0
2016-02-05T05:23:55.114Z,0
2016-02-05T05:24:55.102Z,0
2016-02-05T05:25:55.151Z,0
2016-02-05T05:26:55.107Z,0
2016-02-05T05:27:55.110Z,0
2016-02-05T05:28:55.148Z,0
2016-02-05T05:29:54.950Z,0
2016-02-05T05:30:55.108Z,0
2016-02-05T05:31:55.096Z,0
2016-02-05T05:32:55.083Z,0
2016-02-05T05:33:55.429Z,0
2016-02-05T05:34:55.104Z,0
2016-02-05T05:35:55.076Z,0
2016-02-05T05:36:55.082Z,0
2016-02-05T05:37:55.116Z,0
2016-02-05T05:38:55.088Z,0
2016-02-05T05:39:55.060Z,0
2016-02-05T05:40:55.062Z,0
2016-02-05T05:41:55.079Z,0
2016-02-05T05:42:55.083Z,0
2016-02-05T05:43:55.039Z,0
2016-02-05T05:44:55.058Z,0
2016-02-05T05:45:55.091Z,0
2016-02-05T05:46:55.032Z,0
2016-02-05T05:47:55.050Z,0
2016-02-05T05:48:55.085Z,0
2016-02-05T05:49:55.056Z,0
2016-02-05T05:50:55.075Z,0
2016-02-05T05:51:55.093Z,0
2016-02-05T05:52:55.034Z,0
2016-02-05T05:53:55.020Z,0
2016-02-05T05:54:55.039Z,0
2016-02-05T05:55:55.010Z,0
2016-02-05T05:56:55.027Z,0
2016-02-05T05:57:55.031Z,0
2016-02-05T05:58:55.003Z,0
2016-02-05T05:59:55.006Z,0
2016-02-05T06:00:55.024Z,0
2016-02-05T06:01:54.996Z,0
2016-02-05T06:02:54.998Z,0
2016-02-05T06:03:55.017Z,0
2016-02-05T06:04:54.973Z,0
2016-02-05T06:05:54.991Z,0
2016-02-05T06:06:55.009Z,0
2016-02-05T06:07:54.997Z,0
2016-02-05T06:08:54.970Z,0
2016-02-05T06:09:54.972Z,0
2016-02-05T06:10:54.975Z,0
2016-02-05T06:11:54.961Z,0
2016-02-05T06:12:54.964Z,0
2016-02-05T06:13:54.983Z,0
2016-02-05T06:14:54.939Z,0
2016-02-05T06:15:54.956Z,0
2016-02-05T06:16:54.975Z,0
2016-02-05T06:17:54.947Z,0
2016-02-05T06:18:54.952Z,0
2016-02-05T06:19:54.954Z,0
2016-02-05T06:20:54.957Z,0
2016-02-05T06:21:54.931Z,0
2016-02-05T06:22:54.966Z,0
2016-02-05T06:23:54.937Z,0
2016-02-05T06:24:54.783Z,0
2016-02-05T06:25:54.911Z,0
2016-02-05T06:26:54.929Z,0
2016-02-05T06:27:54.948Z,0
2016-02-05T06:28:54.922Z,0
2016-02-05T06:29:54.934Z,0
2016-02-05T06:30:54.936Z,0
2016-02-05T06:31:54.908Z,0
2016-02-05T06:32:54.911Z,0
2016-02-05T06:33:54.898Z,0
2016-02-05T06:34:54.900Z,0
2016-02-05T06:35:54.919Z,0
2016-02-05T06:36:54.906Z,0
2016-02-05T06:37:54.877Z,0
2016-02-05T06:38:54.880Z,0
2016-02-05T06:39:54.898Z,0
2016-02-05T06:40:54.901Z,0
2016-02-05T06:41:54.873Z,0
2016-02-05T06:42:54.892Z,0
2016-02-05T06:43:54.862Z,0
2016-02-05T06:44:54.865Z,0
2016-02-05T06:45:54.884Z,0
2016-02-05T06:46:54.856Z,0
2016-02-05T06:47:54.858Z,0
2016-02-05T06:48:54.907Z,0
2016-02-05T06:49:54.847Z,0
2016-02-05T06:50:54.836Z,0
2016-02-05T06:51:54.869Z,0
2016-02-05T06:52:54.840Z,0
2016-02-05T06:53:54.843Z,0
2016-02-05T06:54:54.861Z,0
2016-02-05T06:55:54.818Z,0
2016-02-05T06:56:54.852Z,0
2016-02-05T06:57:54.855Z,0
2016-02-05T06:58:54.825Z,0
2016-02-05T06:59:54.811Z,0
2016-02-05T07:00:54.828Z,0
2016-02-05T07:01:54.800Z,0
2016-02-05T07:02:54.818Z,0
2016-02-05T07:03:54.665Z,0
2016-02-05T07:04:54.825Z,0
2016-02-05T07:05:54.812Z,0
2016-02-05T07:06:54.830Z,0
2016-02-05T07:07:54.801Z,0
2016-02-05T07:08:54.804Z,0
2016-02-05T07:09:54.807Z,0
2016-02-05T07:10:54.810Z,0
2016-02-05T07:11:54.797Z,0
2016-02-05T07:12:54.785Z,0
2016-02-05T07:13:54.772Z,0
2016-02-05T07:14:54.776Z,5
2016-02-05T07:15:54.793Z,5
2016-02-05T07:16:54.781Z,5
2016-02-05T07:17:54.752Z,5
2016-02-05T07:18:54.802Z,5
2016-02-05T07:19:54.773Z,5
2016-02-05T07:20:54.760Z,5
2016-02-05T07:21:54.770Z,5
2016-02-05T07:22:54.772Z,5
2016-02-05T07:23:54.744Z,5
2016-02-05T07:24:54.778Z,5
2016-02-05T07:25:55.344Z,10
2016-02-05T07:26:54.737Z,10
2016-02-05T07:27:54.756Z,10
2016-02-05T07:28:54.728Z,10
2016-02-05T07:29:54.732Z,10
2016-02-05T07:30:54.735Z,10
2016-02-05T07:31:54.753Z,10
2016-02-05T07:32:54.724Z,10
2016-02-05T07:33:54.743Z,10
2016-02-05T07:34:54.763Z,10
2016-02-05T07:35:54.719Z,10
2016-02-05T07:36:54.706Z,10
2016-02-05T07:37:54.724Z,10
2016-02-05T07:38:54.726Z,10
2016-02-05T07:39:54.715Z,10
2016-02-05T07:40:54.701Z,15
2016-02-05T07:41:54.735Z,15
2016-02-05T07:42:54.690Z,10
2016-02-05T07:43:54.677Z,10
2016-02-05T07:44:54.712Z,15
2016-02-05T07:45:54.699Z,15
2016-02-05T07:46:54.686Z,15
2016-02-05T07:47:54.735Z,15
2016-02-05T07:48:54.675Z,15
2016-02-05T07:49:54.662Z,15
2016-02-05T07:50:54.711Z,15
2016-02-05T07:51:54.667Z,20
2016-02-05T07:52:54.655Z,20
2016-02-05T07:53:54.657Z,20
2016-02-05T07:54:54.663Z,20
2016-02-05T07:55:54.665Z,20
2016-02-05T07:56:54.668Z,20
2016-02-05T07:57:54.639Z,20
2016-02-05T07:58:54.657Z,20
2016-02-05T07:59:54.676Z,20
2016-02-05T08:00:54.637Z,20
2016-02-05T08:01:54.624Z,20
2016-02-05T08:02:54.646Z,20
2016-02-05T08:03:54.633Z,20
2016-02-05T08:04:54.620Z,25
2016-02-05T08:05:54.654Z,25
2016-02-05T08:06:54.624Z,25
2016-02-05T08:07:54.614Z,25
2016-02-05T08:08:54.647Z,25
2016-02-05T08:09:54.634Z,25
2016-02-05T08:10:54.652Z,25
2016-02-05T08:11:54.608Z,25
2016-02-05T08:12:54.455Z,25
2016-02-05T08:13:54.644Z,25
2016-02-05T08:14:54.601Z,30
2016-02-05T08:15:54.604Z,30
2016-02-05T08:16:54.621Z,30
2016-02-05T08:17:54.593Z,35
2016-02-05T08:18:54.596Z,40
2016-02-05T08:19:53.882Z,45
2016-02-05T08:20:54.573Z,50
2016-02-05T08:21:54.608Z,45
2016-02-05T08:22:54.579Z,45
2016-02-05T08:23:54.581Z,40
2016-02-05T08:24:54.584Z,40
2016-02-05T08:25:54.587Z,40
2016-02-05T08:26:54.574Z,45
2016-02-05T08:27:54.562Z,50
2016-02-05T08:28:54.581Z,50
2016-02-05T08:29:54.553Z,50
2016-02-05T08:30:54.541Z,55
2016-02-05T08:31:54.575Z,55
2016-02-05T08:32:54.547Z,55
2016-02-05T08:33:54.549Z,55
2016-02-05T08:34:54.552Z,55
2016-02-05T08:35:54.571Z,55
2016-02-05T08:36:54.557Z,55
2016-02-05T08:37:54.544Z,55
2016-02-05T08:38:54.532Z,50
2016-02-05T08:39:54.582Z,50
2016-02-05T08:40:54.535Z,55
2016-02-05T08:41:54.538Z,55
2016-02-05T08:42:54.556Z,55
2016-02-05T08:43:54.512Z,60
2016-02-05T08:44:54.530Z,55
2016-02-05T08:45:54.564Z,55
2016-02-05T08:46:54.521Z,55
2016-02-05T08:47:54.524Z,55
2016-02-05T08:48:54.543Z,55
2016-02-05T08:49:54.515Z,55
2016-02-05T08:50:54.502Z,50
2016-02-05T08:51:54.504Z,45
2016-02-05T08:52:54.494Z,45
2016-02-05T08:53:54.511Z,50
2016-02-05T08:54:54.483Z,50
2016-02-05T08:55:54.502Z,50
2016-02-05T08:56:54.489Z,50
2016-02-05T08:57:54.507Z,50
2016-02-05T08:58:54.478Z,50
2016-02-05T08:59:54.496Z,50
2016-02-05T09:00:54.487Z,50
2016-02-05T09:01:54.475Z,50
2016-02-05T09:02:54.509Z,45
2016-02-05T09:03:54.481Z,45
2016-02-05T09:04:54.467Z,40
2016-02-05T09:05:54.488Z,40
2016-02-05T09:06:54.491Z,40
2016-02-05T09:07:54.463Z,40
2016-02-05T09:08:54.481Z,40
2016-02-05T09:09:54.453Z,40
2016-02-05T09:10:54.471Z,40
2016-02-05T09:11:54.473Z,40
2016-02-05T09:12:54.462Z,40
2016-02-05T09:13:54.469Z,40
2016-02-05T09:14:54.439Z,40
2016-02-05T09:15:54.443Z,45
2016-02-05T09:16:54.462Z,50
2016-02-05T09:17:54.435Z,50
2016-02-05T09:18:54.452Z,50
2016-02-05T09:19:54.463Z,50
2016-02-05T09:20:54.449Z,45
2016-02-05T09:21:54.437Z,45
2016-02-05T09:22:54.268Z,45
2016-02-05T09:23:54.286Z,45
2016-02-05T09:24:54.460Z,45
2016-02-05T09:25:54.420Z,40
2016-02-05T09:26:54.422Z,40
2016-02-05T09:27:54.457Z,35
2016-02-05T09:28:54.413Z,40
2016-02-05T09:29:54.415Z,40
2016-02-05T09:30:54.402Z,35
2016-02-05T09:31:54.264Z,40
2016-02-05T09:32:54.407Z,45
2016-02-05T09:33:54.395Z,50
2016-02-05T09:34:54.398Z,55
2016-02-05T09:35:54.400Z,60
2016-02-05T09:36:54.388Z,60
2016-02-05T09:37:54.390Z,60
2016-02-05T09:38:54.409Z,60
2016-02-05T09:39:54.395Z,60
2016-02-05T09:40:54.414Z,60
2016-02-05T09:41:54.385Z,60
2016-02-05T09:42:54.387Z,55
2016-02-05T09:43:54.406Z,55
2016-02-05T09:44:54.377Z,50
2016-02-05T09:45:54.365Z,45
2016-02-05T09:46:54.399Z,45
2016-02-05T09:47:54.371Z,45
2016-02-05T09:48:54.376Z,45
2016-02-05T09:49:54.364Z,40
2016-02-05T09:50:54.398Z,40
2016-02-05T09:51:54.368Z,35
2016-02-05T09:52:54.371Z,35
2016-02-05T09:53:54.360Z,35
2016-02-05T09:54:54.363Z,35
2016-02-05T09:55:54.381Z,35
2016-02-05T09:56:54.368Z,35
2016-02-05T09:57:54.371Z,35
2016-02-05T09:58:54.406Z,35
2016-02-05T09:59:54.362Z,30
2016-02-05T10:00:54.333Z,35
2016-02-05T10:01:54.383Z,35
2016-02-05T10:02:54.354Z,40
2016-02-05T10:03:54.342Z,40
2016-02-05T10:04:54.204Z,40
2016-02-05T10:05:54.317Z,40
2016-02-05T10:06:54.335Z,45
2016-02-05T10:07:54.354Z,45
2016-02-05T10:08:54.325Z,50
2016-02-05T10:09:54.327Z,55
2016-02-05T10:10:54.330Z,55
2016-02-05T10:11:54.349Z,55
2016-02-05T10:12:54.320Z,55
2016-02-05T10:13:54.338Z,55
2016-02-05T10:14:54.310Z,60
2016-02-05T10:15:54.314Z,60
2016-02-05T10:16:54.348Z,60
2016-02-05T10:17:54.304Z,60
2016-02-05T10:18:54.310Z,55
2016-02-05T10:19:54.345Z,55
2016-02-05T10:20:54.300Z,55
2016-02-05T10:21:54.318Z,55
2016-02-05T10:22:54.337Z,55
2016-02-05T10:23:54.293Z,65
2016-02-05T10:24:54.295Z,65
2016-02-05T10:25:54.283Z,65
2016-02-05T10:26:54.316Z,60
2016-02-05T10:27:54.289Z,60
2016-02-05T10:28:54.291Z,55
2016-02-05T10:29:54.325Z,55
2016-02-05T10:30:54.296Z,55
2016-02-05T10:31:54.283Z,55
2016-02-05T10:32:54.270Z,55
2016-02-05T10:33:54.292Z,55
2016-02-05T10:34:54.294Z,50
2016-02-05T10:35:54.297Z,50
2016-02-05T10:36:54.269Z,45
2016-02-05T10:37:54.287Z,45
2016-02-05T10:38:54.260Z,40
2016-02-05T10:39:54.279Z,40
2016-02-05T10:40:54.266Z,40
2016-02-05T10:41:54.299Z,40
2016-02-05T10:42:54.271Z,40
2016-02-05T10:43:54.290Z,40
2016-02-05T10:44:54.276Z,40
2016-02-05T10:45:54.263Z,45
2016-02-05T10:46:54.235Z,45
2016-02-05T10:47:54.284Z,45
2016-02-05T10:48:54.256Z,50
2016-02-05T10:49:54.243Z,50
2016-02-05T10:50:54.245Z,50
2016-02-05T10:51:54.264Z,50
2016-02-05T10:52:54.251Z,55
2016-02-05T10:53:54.237Z,60
2016-02-05T10:54:54.256Z,60
2016-02-05T10:55:54.228Z,65
2016-02-05T10:56:54.246Z,65
2016-02-05T10:57:54.264Z,70
2016-02-05T10:58:54.237Z,70
2016-02-05T10:59:54.240Z,75
2016-02-05T11:00:54.257Z,75
2016-02-05T11:01:54.245Z,70
2016-02-05T11:02:54.219Z,60
2016-02-05T11:03:54.252Z,60
2016-02-05T11:04:54.224Z,65
2016-02-05T11:05:54.211Z,65
2016-02-05T11:06:54.244Z,70
2016-02-05T11:07:54.216Z,70
2016-02-05T11:08:54.062Z,70
2016-02-05T11:09:54.221Z,75
2016-02-05T11:10:54.224Z,80
2016-02-05T11:11:54.244Z,80
2016-02-05T11:12:54.214Z,80
2016-02-05T11:13:54.217Z,80
2016-02-05T11:14:54.220Z,75
2016-02-05T11:15:54.207Z,70
2016-02-05T11:16:54.212Z,70
2016-02-05T11:17:54.198Z,70
2016-02-05T11:18:54.201Z,70
2016-02-05T11:19:54.206Z,75
2016-02-05T11:20:54.208Z,80
2016-02-05T11:21:54.195Z,80
2016-02-05T11:22:54.213Z,80
2016-02-05T11:23:54.200Z,75
2016-02-05T11:24:54.251Z,75
2016-02-05T11:25:54.207Z,75
2016-02-05T11:26:54.194Z,80
2016-02-05T11:27:54.197Z,85
2016-02-05T11:28:54.200Z,85
2016-02-05T11:29:54.202Z,80
2016-02-05T11:30:54.236Z,75
2016-02-05T11:31:54.177Z,70
2016-02-05T11:32:54.213Z,65
2016-02-05T11:33:54.168Z,65
2016-02-05T11:34:54.186Z,60
2016-02-05T11:35:54.173Z,60
2016-02-05T11:36:54.275Z,55
2016-02-05T11:37:54.167Z,45
2016-02-05T11:38:54.170Z,40
2016-02-05T11:39:54.158Z,35
2016-02-05T11:40:54.176Z,35
2016-02-05T11:41:54.163Z,30
2016-02-05T11:42:54.165Z,30
2016-02-05T11:43:54.012Z,30
2016-02-05T11:44:54.156Z,30
2016-02-05T11:45:54.174Z,35
2016-02-05T11:46:54.192Z,35
2016-02-05T11:47:54.164Z,35
2016-02-05T11:48:54.135Z,35
2016-02-05T11:49:54.169Z,40
2016-02-05T11:50:54.141Z,45
2016-02-05T11:51:54.159Z,50
2016-02-05T11:52:54.146Z,50
2016-02-05T11:53:54.149Z,50
2016-02-05T11:54:54.135Z,55
2016-02-05T11:55:54.169Z,55
2016-02-05T11:56:54.141Z,65
2016-02-05T11:57:54.128Z,70
2016-02-05T11:58:54.162Z,70
2016-02-05T11:59:54.212Z,70
2016-02-05T12:00:54.121Z,70
2016-02-05T12:01:54.140Z,70
2016-02-05T12:02:54.143Z,70
2016-02-05T12:03:54.131Z,70
2016-02-05T12:04:54.136Z,70
2016-02-05T12:05:54.138Z,75
2016-02-05T12:06:54.156Z,75
2016-02-05T12:07:54.144Z,75
2016-02-05T12:08:54.115Z,75
2016-02-05T12:09:54.137Z,75
2016-02-05T12:10:54.124Z,75
2016-02-05T12:11:54.173Z,75
2016-02-05T12:12:54.114Z,80
2016-02-05T12:13:54.117Z,80
2016-02-05T12:14:54.103Z,85
2016-02-05T12:15:54.106Z,85
2016-02-05T12:16:54.139Z,85
2016-02-05T12:17:54.097Z,90
2016-02-05T12:18:54.100Z,90
2016-02-05T12:19:54.119Z,90
2016-02-05T12:20:54.090Z,90
2016-02-05T12:21:54.093Z,90
2016-02-05T12:22:54.113Z,95
2016-02-05T12:23:54.100Z,100
2016-02-05T12:24:54.088Z,110
2016-02-05T12:25:54.106Z,115
2016-02-05T12:26:54.110Z,115
2016-02-05T12:27:54.112Z,115
2016-02-05T12:28:54.083Z,115
2016-02-05T12:29:54.103Z,120
2016-02-05T12:30:54.107Z,125
2016-02-05T12:31:53.953Z,125
2016-02-05T12:32:54.081Z,125
2016-02-05T12:33:54.102Z,125
2016-02-05T12:34:53.950Z,120
2016-02-05T12:35:54.077Z,125
2016-02-05T12:36:54.096Z,125
2016-02-05T12:37:54.086Z,130
2016-02-05T12:38:54.073Z,135
2016-02-05T12:39:54.122Z,130
2016-02-05T12:40:54.094Z,130
2016-02-05T12:41:54.112Z,135
2016-02-05T12:42:54.085Z,135
2016-02-05T12:43:54.103Z,130
2016-02-05T12:44:54.059Z,130
2016-02-05T12:45:54.077Z,130
2016-02-05T12:46:54.096Z,120
2016-02-05T12:47:54.067Z,110
2016-02-05T12:48:54.070Z,105
2016-02-05T12:49:54.103Z,100
2016-02-05T12:50:54.080Z,100
2016-02-05T12:51:54.066Z,100
2016-02-05T12:52:54.100Z,95
2016-02-05T12:53:54.087Z,90
2016-02-05T12:54:54.090Z,90
2016-02-05T12:55:54.065Z,90
2016-02-05T12:56:54.083Z,90
2016-02-05T12:57:54.086Z,100
2016-02-05T12:58:54.058Z,105
2016-02-05T12:59:54.060Z,105
2016-02-05T13:00:54.080Z,110
2016-02-05T13:01:54.050Z,110
2016-02-05T13:02:54.070Z,100
2016-02-05T13:03:53.932Z,100
2016-02-05T13:04:54.050Z,100
2016-02-05T13:05:54.057Z,95
2016-02-05T13:06:54.091Z,85
2016-02-05T13:07:54.047Z,75
2016-02-05T13:08:54.065Z,70
2016-02-05T13:09:54.067Z,70
2016-02-05T13:10:54.059Z,75
2016-02-05T13:11:54.077Z,75
2016-02-05T13:12:54.064Z,80
2016-02-05T13:13:54.051Z,85
2016-02-05T13:14:54.085Z,90
2016-02-05T13:15:54.042Z,95
2016-02-05T13:16:54.060Z,95
2016-02-05T13:17:54.047Z,95
2016-02-05T13:18:54.050Z,95
2016-02-05T13:19:54.053Z,95
2016-02-05T13:20:54.071Z,95
2016-02-05T13:21:54.043Z,100
2016-02-05T13:22:54.061Z,100
2016-02-05T13:23:54.050Z,100
2016-02-05T13:24:54.037Z,100
2016-02-05T13:25:54.039Z,100
2016-02-05T13:26:54.058Z,100
2016-02-05T13:27:54.045Z,95
2016-02-05T13:28:54.033Z,95
2016-02-05T13:29:54.052Z,95
2016-02-05T13:30:54.041Z,95
2016-02-05T13:31:54.021Z,95
2016-02-05T13:32:54.403Z,95
2016-02-05T13:34:05.652Z,95
2016-02-05T13:34:54.019Z,95
2016-02-05T13:36:05.881Z,90
2016-02-05T13:36:54.523Z,90
2016-02-05T13:37:54.026Z,90
2016-02-05T13:38:54.386Z,90
2016-02-05T13:39:54.085Z,85
2016-02-05T13:40:53.986Z,85
2016-02-05T13:41:54.013Z,85
2016-02-05T13:42:53.977Z,85
2016-02-05T13:43:53.989Z,85
2016-02-05T13:44:54.021Z,85
2016-02-05T13:45:53.959Z,85
2016-02-05T13:46:53.976Z,85
2016-02-05T13:47:53.945Z,85
2016-02-05T13:48:53.962Z,85
2016-02-05T13:49:53.949Z,85
2016-02-05T13:50:53.950Z,85
2016-02-05T13:51:53.940Z,85
2016-02-05T13:52:53.943Z,85
2016-02-05T13:53:53.976Z,80
2016-02-05T13:54:53.947Z,80
2016-02-05T13:55:53.777Z,80
2016-02-05T13:56:53.957Z,80
2016-02-05T13:57:53.943Z,80
2016-02-05T13:58:53.946Z,80
2016-02-05T13:59:53.979Z,80
2016-02-05T14:00:53.936Z,80
2016-02-05T14:01:53.939Z,80
2016-02-05T14:02:53.942Z,80
2016-02-05T14:03:53.963Z,80
2016-02-05T14:04:53.935Z,80
2016-02-05T14:05:53.938Z,75
2016-02-05T14:06:53.955Z,75
2016-02-05T14:07:53.927Z,75
2016-02-05T14:08:53.946Z,70
2016-02-05T14:09:53.933Z,75
2016-02-05T14:10:53.936Z,70
2016-02-05T14:11:53.938Z,75
2016-02-05T14:12:53.926Z,75
2016-02-05T14:13:53.929Z,75
2016-02-05T14:14:53.947Z,70
2016-02-05T14:15:53.918Z,70
2016-02-05T14:16:53.938Z,70
2016-02-05T14:17:53.925Z,70
2016-02-05T14:18:53.943Z,70
2016-02-05T14:19:53.945Z,70
2016-02-05T14:20:53.933Z,70
2016-02-05T14:21:53.940Z,65
2016-02-05T14:22:53.942Z,65
2016-02-05T14:23:53.929Z,65
2016-02-05T14:24:53.917Z,60
2016-02-05T14:25:53.920Z,60
2016-02-05T14:26:53.938Z,60
2016-02-05T14:27:53.784Z,60
2016-02-05T14:28:53.928Z,60
2016-02-05T14:29:53.932Z,60